createdAt,value
2018-09-22T00:02:09.915Z,61.03
2018-09-22T00:04:46.014Z,61.92
2018-09-22T00:07:21.984Z,61.65
2018-09-22T00:09:57.935Z,61.52
2018-09-22T00:12:33.878Z,62.36
2018-09-22T00:15:09.989Z,64.65
2018-09-22T00:17:45.780Z,65.73
2018-09-22T00:20:21.776Z,66.63
2018-09-22T00:22:57.794Z,67.08
2018-09-22T00:25:33.666Z,68.31
2018-09-22T00:28:09.475Z,69.49
2018-09-22T00:30:46.065Z,70.77
2018-09-22T00:33:21.988Z,72.54
2018-09-22T00:35:57.851Z,71.94
2018-09-22T00:38:33.710Z,72.16
2018-09-22T00:41:09.867Z,73.09
2018-09-22T00:43:45.706Z,73.56
2018-09-22T00:46:21.598Z,74.49
2018-09-22T00:48:57.545Z,74.83
2018-09-22T00:51:33.498Z,75.68
2018-09-22T00:54:09.479Z,76.42
2018-09-22T00:56:45.434Z,77.15
2018-09-22T00:59:21.333Z,78.01
2018-09-22T01:01:57.281Z,77.76
2018-09-22T01:04:33.336Z,77.55
2018-09-22T01:07:09.451Z,77.70
2018-09-22T01:09:45.334Z,78.18
2018-09-22T01:12:21.338Z,78.14
2018-09-22T01:14:57.387Z,77.96
2018-09-22T01:17:33.317Z,77.84
2018-09-22T01:20:09.281Z,79.04
2018-09-22T01:22:45.363Z,78.40
2018-09-22T01:25:21.339Z,78.16
2018-09-22T01:27:57.335Z,79.21
2018-09-22T01:30:33.142Z,78.60
2018-09-22T01:33:09.244Z,78.38
2018-09-22T01:35:45.203Z,78.34
2018-09-22T01:38:21.043Z,78.53
2018-09-22T01:40:56.807Z,78.46
2018-09-22T01:43:32.663Z,78.85
2018-09-22T01:46:08.533Z,78.47
2018-09-22T01:48:44.434Z,78.63
2018-09-22T01:51:20.379Z,78.30
2018-09-22T01:53:56.474Z,78.31
2018-09-22T01:56:32.472Z,78.40
2018-09-22T01:59:08.337Z,78.61
2018-09-22T02:01:44.172Z,78.64
2018-09-22T02:04:20.051Z,78.95
2018-09-22T02:06:56.595Z,78.39
2018-09-22T02:09:32.556Z,77.62
2018-09-22T02:12:08.611Z,77.80
2018-09-22T02:14:44.671Z,77.86
2018-09-22T02:17:20.560Z,77.92
2018-09-22T02:19:57.372Z,77.45
2018-09-22T02:22:33.400Z,77.49
2018-09-22T02:25:09.303Z,77.58
2018-09-22T02:27:45.182Z,77.85
2018-09-22T02:30:21.160Z,77.61
2018-09-22T02:32:57.013Z,77.76
2018-09-22T02:35:32.964Z,76.92
2018-09-22T02:38:08.746Z,76.82
2018-09-22T02:40:44.618Z,75.86
2018-09-22T02:43:20.572Z,75.72
2018-09-22T02:45:57.365Z,75.94
2018-09-22T02:48:33.438Z,75.69
2018-09-22T02:51:09.455Z,76.03
2018-09-22T02:53:45.414Z,76.09
2018-09-22T02:56:21.271Z,76.00
2018-09-22T02:58:57.303Z,75.91
2018-09-22T03:01:33.299Z,75.40
2018-09-22T03:04:09.197Z,75.52
2018-09-22T03:06:45.248Z,75.66
2018-09-22T03:09:21.296Z,75.34
2018-09-22T03:11:57.201Z,75.08
2018-09-22T03:14:33.072Z,75.28
2018-09-22T03:17:08.866Z,75.12
2018-09-22T03:19:44.710Z,75.40
2018-09-22T03:22:20.733Z,74.68
2018-09-22T03:24:56.822Z,74.97
2018-09-22T03:27:32.777Z,74.56
2018-09-22T03:30:08.957Z,74.96
2018-09-22T03:32:44.977Z,75.06
2018-09-22T03:35:20.854Z,75.22
2018-09-22T03:37:56.791Z,75.23
2018-09-22T03:40:32.575Z,74.86
2018-09-22T03:43:08.604Z,75.36
2018-09-22T03:45:44.450Z,75.30
2018-09-22T03:48:20.441Z,74.87
2018-09-22T03:50:56.383Z,74.78
2018-09-22T03:53:32.300Z,75.05
2018-09-22T03:56:07.988Z,75.26
2018-09-22T03:58:43.891Z,75.07
2018-09-22T04:01:19.929Z,74.96
2018-09-22T04:03:55.761Z,74.81
2018-09-22T04:06:31.743Z,74.80
2018-09-22T04:09:08.696Z,74.65
2018-09-22T04:11:44.534Z,74.31
2018-09-22T04:14:20.637Z,74.23
2018-09-22T04:16:56.861Z,74.83
2018-09-22T04:19:32.835Z,74.11
2018-09-22T04:22:08.756Z,74.87
2018-09-22T04:24:44.558Z,74.53
2018-09-22T04:27:20.507Z,74.03
2018-09-22T04:29:56.483Z,74.31
2018-09-22T04:32:32.496Z,74.31
2018-09-22T04:35:08.560Z,74.66
2018-09-22T04:37:44.537Z,74.62
2018-09-22T04:40:20.516Z,73.82
2018-09-22T04:42:56.229Z,74.10
2018-09-22T04:48:15.397Z,73.61
2018-09-22T04:50:51.871Z,74.61
2018-09-22T04:53:27.710Z,74.28
2018-09-22T04:56:03.515Z,74.75
2018-09-22T04:58:39.588Z,74.47
2018-09-22T05:01:15.311Z,74.70
2018-09-22T05:03:51.248Z,74.16
2018-09-22T05:06:27.307Z,73.68
2018-09-22T05:09:03.325Z,73.41
2018-09-22T05:11:39.324Z,73.62
2018-09-22T05:14:15.242Z,73.58
2018-09-22T05:16:51.216Z,73.61
2018-09-22T05:19:27.372Z,73.63
2018-09-22T05:22:03.334Z,73.55
2018-09-22T05:24:39.090Z,73.55
2018-09-22T05:27:14.998Z,73.13
2018-09-22T05:29:50.916Z,73.29
2018-09-22T05:32:26.943Z,73.37
2018-09-22T05:35:02.877Z,73.58
2018-09-22T05:37:38.713Z,73.20
2018-09-22T05:40:14.748Z,73.02
2018-09-22T05:42:50.671Z,72.76
2018-09-22T05:45:26.532Z,73.03
2018-09-22T05:48:02.537Z,72.98
2018-09-22T05:50:38.400Z,72.82
2018-09-22T05:53:14.188Z,72.74
2018-09-22T05:55:50.039Z,72.64
2018-09-22T05:58:26.037Z,72.68
2018-09-22T06:01:02.079Z,72.30
2018-09-22T06:03:37.793Z,71.85
2018-09-22T06:06:13.626Z,72.27
2018-09-22T06:08:49.646Z,71.77
2018-09-22T06:11:25.440Z,71.62
2018-09-22T06:14:01.180Z,71.52
2018-09-22T06:16:37.033Z,71.67
2018-09-22T06:19:12.879Z,71.32
2018-09-22T06:21:48.862Z,70.85
2018-09-22T06:24:24.722Z,70.51
2018-09-22T06:27:00.606Z,69.81
2018-09-22T06:29:36.484Z,69.72
2018-09-22T06:32:12.297Z,69.39
2018-09-22T06:34:48.384Z,69.46
2018-09-22T06:37:24.424Z,69.37
2018-09-22T06:40:00.306Z,68.98
2018-09-22T06:42:36.384Z,68.51
2018-09-22T06:45:12.236Z,68.21
2018-09-22T06:47:48.268Z,67.82
2018-09-22T06:50:24.270Z,66.72
2018-09-22T06:53:00.309Z,66.74
2018-09-22T06:55:36.228Z,65.79
2018-09-22T06:58:12.271Z,65.68
2018-09-22T07:00:48.233Z,65.56
2018-09-22T07:03:24.207Z,64.56
2018-09-22T07:06:00.122Z,64.88
2018-09-22T07:08:35.981Z,64.49
2018-09-22T07:11:11.860Z,64.25
2018-09-22T07:13:47.797Z,64.10
2018-09-22T07:16:23.703Z,62.67
2018-09-22T07:18:59.747Z,61.60
2018-09-22T07:21:40.609Z,60.28
2018-09-22T07:24:16.485Z,59.19
2018-09-22T07:26:53.499Z,59.27
2018-09-22T07:29:29.501Z,57.77
2018-09-22T07:32:05.401Z,58.75
2018-09-22T07:34:41.373Z,59.60
2018-09-22T07:37:17.369Z,59.65
2018-09-22T07:39:53.322Z,60.40
2018-09-22T07:42:29.255Z,59.88
2018-09-22T07:45:05.114Z,59.66
2018-09-22T07:47:41.108Z,60.54
2018-09-22T07:50:16.864Z,60.34
2018-09-22T07:52:52.850Z,59.79
2018-09-22T07:55:28.938Z,59.34
2018-09-22T07:58:05.019Z,60.24
2018-09-22T08:00:40.906Z,59.44
2018-09-22T08:03:16.891Z,59.20
2018-09-22T08:05:52.839Z,59.61
2018-09-22T08:08:28.854Z,60.42
2018-09-22T08:11:04.808Z,60.70
2018-09-22T08:13:40.667Z,61.07
2018-09-22T08:16:16.610Z,61.76
2018-09-22T08:18:52.523Z,61.58
2018-09-22T08:21:34.893Z,60.07
2018-09-22T08:24:10.803Z,58.79
2018-09-22T08:26:46.850Z,56.71
2018-09-22T08:29:22.815Z,54.63
2018-09-22T08:31:58.885Z,53.50
2018-09-22T08:34:34.866Z,52.85
2018-09-22T08:37:11.034Z,53.17
2018-09-22T08:39:46.976Z,53.43
2018-09-22T08:42:22.808Z,53.08
2018-09-22T08:44:58.910Z,53.41
2018-09-22T08:47:34.894Z,53.72
2018-09-22T08:50:10.943Z,53.79
2018-09-22T08:52:46.956Z,53.43
2018-09-22T08:55:22.940Z,53.56
2018-09-22T08:57:58.798Z,54.09
2018-09-22T09:00:34.650Z,51.90
2018-09-22T09:03:10.589Z,51.01
2018-09-22T09:05:46.720Z,51.88
2018-09-22T09:08:22.540Z,50.53
2018-09-22T09:10:58.483Z,50.84
2018-09-22T09:13:34.385Z,49.48
2018-09-22T09:16:10.486Z,46.78
2018-09-22T09:18:46.421Z,46.31
2018-09-22T09:21:28.915Z,45.36
2018-09-22T09:24:04.804Z,44.46
2018-09-22T09:26:41.484Z,44.91
2018-09-22T09:29:17.379Z,45.01
2018-09-22T09:31:53.422Z,43.92
2018-09-22T09:34:29.329Z,42.02
2018-09-22T09:37:05.498Z,40.43
2018-09-22T09:39:41.305Z,40.10
2018-09-22T09:42:17.335Z,41.20
2018-09-22T09:44:53.240Z,40.54
2018-09-22T09:47:29.168Z,41.59
2018-09-22T09:50:05.127Z,42.68
2018-09-22T09:52:41.130Z,42.97
2018-09-22T09:55:16.968Z,43.89
2018-09-22T09:57:52.944Z,43.84
2018-09-22T10:00:34.159Z,43.24
2018-09-22T10:03:10.092Z,42.90
2018-09-22T10:05:46.320Z,40.51
2018-09-22T10:08:22.277Z,40.97
2018-09-22T10:10:58.224Z,39.83
2018-09-22T10:13:34.170Z,39.43
2018-09-22T10:16:10.235Z,39.11
2018-09-22T10:18:46.299Z,38.47
2018-09-22T10:21:22.227Z,39.22
2018-09-22T10:23:58.435Z,40.08
2018-09-22T10:26:34.460Z,38.47
2018-09-22T10:29:10.418Z,37.79
2018-09-22T10:31:46.390Z,37.59
2018-09-22T10:34:22.443Z,38.48
2018-09-22T10:36:58.447Z,39.17
2018-09-22T10:39:34.339Z,40.03
2018-09-22T10:42:10.182Z,39.19
2018-09-22T10:44:46.211Z,39.07
2018-09-22T10:47:22.115Z,40.16
2018-09-22T10:49:58.125Z,40.03
2018-09-22T10:52:34.162Z,40.52
2018-09-22T10:55:10.228Z,40.17
2018-09-22T10:57:46.226Z,40.31
2018-09-22T11:00:22.162Z,39.83
2018-09-22T11:02:58.031Z,40.19
2018-09-22T11:05:33.841Z,39.95
2018-09-22T11:08:09.864Z,39.39
2018-09-22T11:10:45.739Z,40.28
2018-09-22T11:13:21.726Z,41.09
2018-09-22T11:15:57.583Z,40.35
2018-09-22T11:18:33.560Z,40.26
2018-09-22T11:21:09.343Z,38.83
2018-09-22T11:23:45.305Z,39.83
2018-09-22T11:26:21.214Z,40.28
2018-09-22T11:28:57.228Z,40.29
2018-09-22T11:31:33.114Z,40.69
2018-09-22T11:34:09.182Z,41.13
2018-09-22T11:36:45.149Z,41.28
2018-09-22T11:39:20.912Z,41.40
2018-09-22T11:41:56.739Z,40.55
2018-09-22T11:44:32.763Z,41.91
2018-09-22T11:47:08.544Z,41.81
2018-09-22T11:49:44.450Z,41.68
2018-09-22T11:52:20.252Z,42.74
2018-09-22T11:54:56.106Z,42.24
2018-09-22T11:57:31.908Z,42.04
2018-09-22T12:00:08.251Z,41.64
2018-09-22T12:02:44.276Z,42.46
2018-09-22T12:05:20.244Z,42.80
2018-09-22T12:07:56.143Z,40.86
2018-09-22T12:10:32.102Z,40.21
2018-09-22T12:13:08.055Z,40.43
2018-09-22T12:15:43.929Z,41.00
2018-09-22T12:18:19.948Z,41.48
2018-09-22T12:20:56.016Z,41.32
2018-09-22T12:23:32.048Z,42.58
2018-09-22T12:26:08.057Z,42.07
2018-09-22T12:28:43.922Z,42.05
2018-09-22T12:31:19.876Z,43.03
2018-09-22T12:33:55.667Z,43.25
2018-09-22T12:36:31.748Z,44.38
2018-09-22T12:39:11.547Z,45.39
2018-09-22T12:41:47.590Z,45.65
2018-09-22T12:44:23.435Z,45.84
2018-09-22T12:46:59.343Z,45.68
2018-09-22T12:49:35.069Z,46.17
2018-09-22T12:52:10.988Z,45.78
2018-09-22T12:54:46.837Z,45.75
2018-09-22T12:57:22.845Z,46.42
2018-09-22T12:59:58.851Z,46.96
2018-09-22T13:02:34.737Z,47.12
2018-09-22T13:05:10.864Z,47.93
2018-09-22T13:07:46.970Z,47.32
2018-09-22T13:10:22.997Z,46.90
2018-09-22T13:12:58.972Z,47.07
2018-09-22T13:15:34.861Z,47.76
2018-09-22T13:18:10.680Z,47.59
2018-09-22T13:20:46.751Z,48.19
2018-09-22T13:23:22.626Z,49.03
2018-09-22T13:25:58.812Z,48.14
2018-09-22T13:28:34.555Z,47.95
2018-09-22T13:31:10.491Z,47.20
2018-09-22T13:33:46.494Z,47.55
2018-09-22T13:36:22.412Z,48.26
2018-09-22T13:38:58.572Z,47.95
2018-09-22T13:41:34.323Z,48.41
2018-09-22T13:44:10.591Z,48.58
2018-09-22T13:46:46.413Z,48.95
2018-09-22T13:49:22.459Z,49.60
2018-09-22T13:51:58.529Z,50.12
2018-09-22T13:54:34.648Z,50.20
2018-09-22T13:57:10.811Z,49.84
2018-09-22T13:59:46.767Z,50.45
2018-09-22T14:02:22.685Z,50.96
2018-09-22T14:04:58.543Z,51.26
2018-09-22T14:07:34.553Z,51.02
2018-09-22T14:10:10.430Z,51.49
2018-09-22T14:12:46.353Z,51.81
2018-09-22T14:15:22.589Z,52.39
2018-09-22T14:17:58.598Z,52.32
2018-09-22T14:20:34.666Z,52.60
2018-09-22T14:23:10.746Z,55.49
2018-09-22T14:25:46.842Z,57.78
2018-09-22T14:28:22.666Z,59.39
2018-09-22T14:30:58.828Z,60.36
2018-09-22T14:33:34.867Z,59.72
2018-09-22T14:36:10.870Z,60.43
2018-09-22T14:38:46.971Z,60.17
2018-09-22T14:41:22.864Z,58.39
2018-09-22T14:43:58.701Z,58.67
2018-09-22T14:46:34.801Z,58.54
2018-09-22T14:49:10.794Z,58.55
2018-09-22T14:51:46.697Z,60.18
2018-09-22T14:54:22.727Z,60.76
2018-09-22T14:56:58.782Z,59.38
2018-09-22T14:59:34.800Z,59.34
2018-09-22T15:02:10.628Z,59.39
2018-09-22T15:04:46.764Z,59.02
2018-09-22T15:07:22.730Z,60.87
2018-09-22T15:09:58.619Z,61.62
2018-09-22T15:12:34.640Z,59.93
2018-09-22T15:15:10.512Z,60.76
2018-09-22T15:17:46.468Z,61.11
2018-09-22T15:20:22.587Z,60.92
2018-09-22T15:22:58.580Z,61.09
2018-09-22T15:25:34.723Z,61.98
2018-09-22T15:28:10.690Z,61.90
2018-09-22T15:30:46.707Z,62.12
2018-09-22T15:33:22.619Z,62.61
2018-09-22T15:35:58.675Z,63.10
2018-09-22T15:38:34.764Z,63.24
2018-09-22T15:41:10.842Z,63.98
2018-09-22T15:43:46.833Z,63.17
2018-09-22T15:46:22.850Z,64.76
2018-09-22T15:48:58.725Z,64.25
2018-09-22T15:51:34.708Z,65.51
2018-09-22T15:54:10.652Z,65.58
2018-09-22T15:56:46.574Z,66.44
2018-09-22T15:59:22.619Z,66.89
2018-09-22T16:01:58.567Z,67.62
2018-09-22T16:04:34.672Z,67.59
2018-09-22T16:07:10.668Z,68.23
2018-09-22T16:09:46.664Z,69.52
2018-09-22T16:12:22.800Z,69.54
2018-09-22T16:14:58.770Z,69.81
2018-09-22T16:17:34.930Z,71.15
2018-09-22T16:20:10.982Z,71.41
2018-09-22T16:22:47.150Z,72.22
2018-09-22T16:25:23.148Z,71.22
2018-09-22T16:27:59.203Z,71.53
2018-09-22T16:30:35.221Z,71.80
2018-09-22T16:33:11.203Z,72.19
2018-09-22T16:35:47.325Z,72.65
2018-09-22T16:38:23.393Z,72.15
2018-09-22T16:40:59.320Z,72.57
2018-09-22T16:43:35.375Z,72.34
2018-09-22T16:46:11.410Z,71.91
2018-09-22T16:48:47.523Z,72.14
2018-09-22T16:51:23.719Z,73.25
2018-09-22T16:53:59.885Z,73.16
2018-09-22T16:56:35.793Z,73.73
2018-09-22T16:59:11.764Z,73.00
2018-09-22T17:01:47.777Z,73.89
2018-09-22T17:04:23.729Z,73.61
2018-09-22T17:06:59.722Z,74.27
2018-09-22T17:09:35.850Z,74.80
2018-09-22T17:12:11.829Z,73.52
2018-09-22T17:14:47.903Z,74.13
2018-09-22T17:17:23.823Z,74.47
2018-09-22T17:19:59.820Z,72.85
2018-09-22T17:22:35.819Z,72.93
2018-09-22T17:25:11.707Z,72.94
2018-09-22T17:27:47.572Z,72.80
2018-09-22T17:30:23.524Z,72.49
2018-09-22T17:32:59.432Z,72.22
2018-09-22T17:35:35.336Z,72.08
2018-09-22T17:38:11.444Z,71.77
2018-09-22T17:40:47.461Z,72.05
2018-09-22T17:43:23.662Z,71.95
2018-09-22T17:45:59.760Z,72.08
2018-09-22T17:49:06.691Z,72.59
2018-09-22T17:51:42.636Z,72.27
2018-09-22T17:54:18.660Z,72.95
2018-09-22T17:56:54.741Z,73.09
2018-09-22T17:59:30.882Z,72.85
2018-09-22T18:02:07.203Z,72.83
2018-09-22T18:04:43.334Z,73.24
2018-09-22T18:07:19.611Z,73.21
2018-09-22T18:09:55.735Z,73.06
2018-09-22T18:12:31.887Z,73.40
2018-09-22T18:15:07.811Z,71.91
2018-09-22T18:17:43.763Z,72.72
2018-09-22T18:20:19.777Z,72.20
2018-09-22T18:22:55.816Z,73.50
2018-09-22T18:25:32.082Z,72.38
2018-09-22T18:28:08.037Z,73.25
2018-09-22T18:30:43.990Z,73.50
2018-09-22T18:33:20.875Z,73.69
2018-09-22T18:35:59.885Z,73.80
2018-09-22T18:38:35.926Z,74.08
2018-09-22T18:41:11.921Z,74.20
2018-09-22T18:43:47.939Z,74.01
2018-09-22T18:46:23.895Z,74.92
2018-09-22T18:48:59.818Z,74.92
2018-09-22T18:51:35.789Z,75.04
2018-09-22T18:54:11.733Z,75.03
2018-09-22T18:56:47.881Z,75.50
2018-09-22T18:59:23.637Z,75.66
2018-09-22T19:01:59.535Z,76.55
2018-09-22T19:04:35.335Z,75.88
2018-09-22T19:07:11.288Z,75.48
2018-09-22T19:09:47.252Z,76.19
2018-09-22T19:12:23.390Z,76.35
2018-09-22T19:15:03.864Z,75.06
2018-09-22T19:17:59.852Z,74.55
2018-09-22T19:20:41.333Z,75.23
2018-09-22T19:23:23.916Z,75.59
2018-09-22T19:26:03.538Z,76.76
2018-09-22T19:28:49.680Z,77.21
2018-09-22T19:31:30.747Z,77.57
2018-09-22T19:34:11.091Z,76.12
2018-09-22T19:36:54.456Z,75.84
2018-09-22T19:39:35.919Z,76.28
2018-09-22T19:43:18.476Z,77.70
2018-09-22T19:45:57.127Z,78.02
2018-09-22T19:48:41.338Z,78.62
2018-09-22T19:51:18.885Z,77.29
2018-09-22T19:53:56.195Z,78.50
2018-09-22T19:56:32.151Z,77.79
2018-09-22T19:59:08.157Z,77.80
2018-09-22T20:01:44.067Z,78.49
2018-09-22T20:04:20.022Z,79.05
2018-09-22T20:06:55.915Z,79.52
2018-09-22T20:09:31.728Z,80.21
2018-09-22T20:12:07.751Z,81.12
2018-09-22T20:14:43.525Z,81.65
2018-09-22T20:17:19.416Z,81.55
2018-09-22T20:19:55.809Z,81.60
2018-09-22T20:22:31.840Z,82.65
2018-09-22T20:25:07.961Z,82.78
2018-09-22T20:27:43.860Z,82.28
2018-09-22T20:30:19.680Z,82.16
2018-09-22T20:32:55.486Z,82.69
2018-09-22T20:35:31.471Z,82.95
2018-09-22T20:38:07.476Z,82.58
2018-09-22T20:40:43.523Z,82.87
2018-09-22T20:43:19.353Z,83.21
2018-09-22T20:45:55.406Z,82.74
2018-09-22T20:48:31.244Z,83.21
2018-09-22T20:51:07.373Z,83.49
2018-09-22T20:53:43.419Z,82.65
2018-09-22T20:56:19.509Z,82.33
2018-09-22T20:58:55.464Z,83.21
2018-09-22T21:01:31.455Z,83.11
2018-09-22T21:04:07.426Z,83.47
2018-09-22T21:06:43.591Z,83.02
2018-09-22T21:09:19.546Z,83.97
2018-09-22T21:11:55.540Z,84.27
2018-09-22T21:14:31.447Z,83.49
2018-09-22T21:17:07.453Z,83.71
2018-09-22T21:19:43.404Z,83.97
2018-09-22T21:22:19.402Z,83.17
2018-09-22T21:24:55.384Z,83.88
2018-09-22T21:27:31.304Z,83.42
2018-09-22T21:30:07.289Z,83.87
2018-09-22T21:32:43.264Z,83.98
2018-09-22T21:35:19.203Z,83.66
2018-09-22T21:37:55.311Z,83.88
2018-09-22T21:40:31.346Z,83.98
2018-09-22T21:43:07.501Z,84.34
2018-09-22T21:45:43.479Z,84.17
2018-09-22T21:48:19.418Z,84.48
2018-09-22T21:50:55.337Z,85.00
2018-09-22T21:53:31.311Z,84.13
2018-09-22T21:56:07.253Z,85.15
2018-09-22T21:58:43.212Z,85.04
2018-09-22T22:01:24.595Z,84.26
2018-09-22T22:04:00.637Z,84.42
2018-09-22T22:06:36.827Z,84.01
2018-09-22T22:09:13.960Z,83.92
2018-09-22T22:11:50.697Z,84.69
2018-09-22T22:14:26.603Z,84.35
2018-09-22T22:17:02.419Z,85.53
2018-09-22T22:19:38.522Z,84.09
2018-09-22T22:22:14.985Z,83.97
2018-09-22T22:24:51.020Z,84.28
2018-09-22T22:27:26.919Z,85.19
2018-09-22T22:30:02.813Z,85.16
2018-09-22T22:32:38.760Z,85.42
2018-09-22T22:35:14.743Z,84.52
2018-09-22T22:37:50.775Z,83.91
2018-09-22T22:40:26.806Z,84.03
2018-09-22T22:43:09.517Z,83.74
2018-09-22T22:45:45.391Z,83.69
2018-09-22T22:48:21.216Z,84.12
2018-09-22T22:50:57.032Z,84.70
2018-09-22T22:53:33.176Z,84.33
2018-09-22T22:56:09.170Z,84.73
2018-09-22T22:58:44.979Z,84.01
2018-09-22T23:01:20.949Z,84.44
2018-09-22T23:03:56.956Z,84.31
2018-09-22T23:06:32.992Z,85.06
2018-09-22T23:09:09.780Z,83.94
2018-09-22T23:11:45.834Z,84.90
2018-09-22T23:14:21.756Z,85.31
2018-09-22T23:16:57.744Z,85.23
2018-09-22T23:19:33.663Z,84.03
2018-09-22T23:22:09.469Z,84.11
2018-09-22T23:24:45.363Z,83.85
2018-09-22T23:27:21.201Z,83.83
2018-09-22T23:29:57.231Z,84.35
2018-09-22T23:32:33.196Z,84.74
2018-09-22T23:35:09.065Z,84.82
2018-09-22T23:37:44.858Z,85.50
2018-09-22T23:40:20.807Z,84.85
2018-09-22T23:42:56.748Z,84.38
2018-09-22T23:45:32.762Z,85.01
2018-09-22T23:48:08.627Z,84.77
2018-09-22T23:50:44.347Z,84.11
2018-09-22T23:53:20.406Z,84.15
2018-09-22T23:55:56.263Z,85.16
2018-09-22T23:58:32.306Z,85.48
